createdAt,value
2018-03-24T00:00:29.917Z,43.53
2018-03-24T00:02:57.275Z,42.50
2018-03-24T00:05:24.647Z,46.00
2018-03-24T00:07:52.059Z,44.00
2018-03-24T00:10:19.421Z,41.13
2018-03-24T00:12:46.781Z,43.10
2018-03-24T00:15:14.182Z,44.43
2018-03-24T00:17:41.546Z,41.83
2018-03-24T00:20:08.917Z,40.30
2018-03-24T00:22:36.334Z,42.33
2018-03-24T00:25:03.697Z,42.60
2018-03-24T00:27:31.092Z,41.53
2018-03-24T00:29:58.449Z,36.40
2018-03-24T00:32:25.818Z,40.97
2018-03-24T00:34:53.230Z,39.50
2018-03-24T00:37:20.614Z,39.70
2018-03-24T00:39:47.980Z,42.90
2018-03-24T00:42:15.370Z,39.60
2018-03-24T00:44:42.731Z,37.77
2018-03-24T00:47:10.134Z,39.63
2018-03-24T00:49:37.497Z,43.13
2018-03-24T00:52:04.896Z,38.23
2018-03-24T00:54:32.250Z,39.20
2018-03-24T00:56:59.711Z,38.77
2018-03-24T00:59:27.128Z,37.33
2018-03-24T01:01:54.501Z,36.30
2018-03-24T01:04:21.898Z,35.23
2018-03-24T01:06:49.256Z,35.30
2018-03-24T01:09:16.618Z,37.80
2018-03-24T01:11:44.001Z,43.30
2018-03-24T01:14:11.353Z,33.80
2018-03-24T01:16:38.748Z,35.60
2018-03-24T01:19:06.114Z,35.43
2018-03-24T01:21:33.469Z,39.40
2018-03-24T01:24:00.878Z,32.20
2018-03-24T01:26:28.237Z,33.30
2018-03-24T01:28:55.601Z,35.27
2018-03-24T01:31:23.014Z,33.77
2018-03-24T01:33:50.386Z,31.07
2018-03-24T01:36:18.214Z,38.07
2018-03-24T01:38:45.624Z,35.40
2018-03-24T01:41:12.977Z,35.60
2018-03-24T01:43:40.366Z,32.90
2018-03-24T01:46:07.766Z,36.70
2018-03-24T01:48:35.170Z,33.50
2018-03-24T01:51:02.535Z,35.00
2018-03-24T01:53:35.891Z,33.50
2018-03-24T01:56:03.290Z,35.93
2018-03-24T01:58:30.666Z,36.37
2018-03-24T02:00:58.085Z,30.67
2018-03-24T02:03:25.445Z,35.10
2018-03-24T02:05:52.814Z,31.30
2018-03-24T02:08:20.241Z,33.30
2018-03-24T02:10:47.610Z,30.30
2018-03-24T02:13:14.965Z,35.50
2018-03-24T02:15:42.362Z,37.90
2018-03-24T02:18:09.738Z,30.87
2018-03-24T02:20:37.106Z,36.33
2018-03-24T02:23:04.526Z,31.90
2018-03-24T02:25:31.902Z,32.33
2018-03-24T02:27:59.325Z,33.43
2018-03-24T02:30:26.737Z,32.57
2018-03-24T02:32:54.098Z,33.17
2018-03-24T02:35:21.492Z,32.10
2018-03-24T02:37:48.854Z,33.23
2018-03-24T02:40:16.261Z,33.90
2018-03-24T02:42:43.735Z,33.47
2018-03-24T02:45:11.101Z,28.73
2018-03-24T02:47:38.506Z,33.13
2018-03-24T02:50:05.865Z,31.67
2018-03-24T02:52:33.279Z,34.37
2018-03-24T02:55:04.246Z,36.60
2018-03-24T02:57:31.621Z,32.27
2018-03-24T02:59:59.018Z,34.17
2018-03-24T03:02:26.396Z,31.30
2018-03-24T03:04:53.796Z,31.00
2018-03-24T03:07:21.161Z,29.70
2018-03-24T03:09:48.552Z,29.77
2018-03-24T03:12:15.905Z,30.00
2018-03-24T03:14:43.262Z,28.77
2018-03-24T03:17:10.680Z,31.60
2018-03-24T03:19:38.103Z,33.17
2018-03-24T03:22:05.456Z,29.40
2018-03-24T03:24:32.870Z,27.07
2018-03-24T03:27:00.228Z,29.90
2018-03-24T03:29:27.605Z,28.67
2018-03-24T03:31:56.767Z,33.23
2018-03-24T03:34:24.172Z,27.03
2018-03-24T03:36:51.529Z,28.93
2018-03-24T03:39:18.886Z,31.03
2018-03-24T03:41:46.318Z,32.10
2018-03-24T03:44:13.682Z,29.73
2018-03-24T03:46:41.062Z,29.17
2018-03-24T03:49:08.453Z,29.63
2018-03-24T03:51:35.823Z,29.47
2018-03-24T03:54:03.181Z,30.73
2018-03-24T03:56:30.570Z,24.60
2018-03-24T03:58:57.953Z,26.10
2018-03-24T04:01:25.335Z,28.47
2018-03-24T04:03:52.695Z,27.30
2018-03-24T04:06:20.077Z,32.33
2018-03-24T04:08:47.437Z,28.43
2018-03-24T04:11:14.839Z,30.47
2018-03-24T04:13:42.213Z,28.40
2018-03-24T04:16:09.624Z,26.53
2018-03-24T04:18:37.022Z,30.17
2018-03-24T04:21:04.387Z,28.17
2018-03-24T04:23:31.789Z,31.37
2018-03-24T04:25:59.146Z,29.40
2018-03-24T04:28:26.502Z,28.63
2018-03-24T04:30:53.886Z,30.60
2018-03-24T04:33:21.245Z,28.23
2018-03-24T04:35:48.638Z,27.60
2018-03-24T04:38:16.000Z,30.83
2018-03-24T04:40:43.392Z,31.50
2018-03-24T04:43:10.774Z,30.30
2018-03-24T04:45:38.129Z,27.63
2018-03-24T04:48:05.554Z,29.73
2018-03-24T04:50:32.914Z,29.13
2018-03-24T04:53:00.285Z,28.50
2018-03-24T04:55:27.674Z,34.50
2018-03-24T04:57:55.026Z,33.90
2018-03-24T05:00:22.381Z,30.30
2018-03-24T05:02:49.760Z,31.80
2018-03-24T05:05:17.112Z,28.73
2018-03-24T05:07:44.493Z,34.90
2018-03-24T05:10:11.860Z,32.07
2018-03-24T05:12:39.300Z,32.87
2018-03-24T05:15:06.712Z,27.73
2018-03-24T05:17:34.079Z,27.23
2018-03-24T05:20:05.269Z,33.47
2018-03-24T05:22:32.661Z,30.23
2018-03-24T05:25:00.061Z,35.43
2018-03-24T05:27:27.422Z,33.73
2018-03-24T05:29:54.785Z,33.33
2018-03-24T05:32:22.200Z,34.40
2018-03-24T05:34:49.632Z,32.63
2018-03-24T05:37:17.029Z,38.43
2018-03-24T05:39:44.445Z,35.30
2018-03-24T05:42:11.814Z,35.23
2018-03-24T05:44:39.175Z,37.73
2018-03-24T05:47:06.583Z,35.20
2018-03-24T05:49:33.942Z,36.60
2018-03-24T05:52:01.293Z,35.87
2018-03-24T05:54:28.697Z,35.50
2018-03-24T05:56:57.047Z,31.40
2018-03-24T05:59:24.404Z,34.13
2018-03-24T06:01:51.797Z,37.53
2018-03-24T06:04:19.190Z,30.47
2018-03-24T06:06:46.609Z,32.57
2018-03-24T06:09:13.977Z,33.70
2018-03-24T06:11:41.342Z,34.13
2018-03-24T06:14:08.719Z,34.40
2018-03-24T06:16:36.102Z,36.53
2018-03-24T06:19:03.758Z,34.90
2018-03-24T06:21:31.149Z,39.07
2018-03-24T06:23:58.502Z,33.57
2018-03-24T06:26:25.869Z,37.33
2018-03-24T06:28:53.257Z,31.90
2018-03-24T06:31:22.257Z,33.47
2018-03-24T06:33:49.642Z,33.60
2018-03-24T06:36:18.807Z,37.70
2018-03-24T06:38:46.210Z,38.13
2018-03-24T06:41:13.566Z,35.83
2018-03-24T06:43:40.929Z,34.67
2018-03-24T06:46:08.329Z,31.90
2018-03-24T06:48:35.686Z,34.30
2018-03-24T06:51:03.086Z,34.10
2018-03-24T06:53:30.477Z,38.10
2018-03-24T06:55:57.835Z,31.87
2018-03-24T06:58:25.218Z,32.97
2018-03-24T07:00:52.583Z,30.73
2018-03-24T07:03:19.985Z,32.00
2018-03-24T07:05:47.345Z,33.57
2018-03-24T07:08:14.704Z,30.20
2018-03-24T07:10:42.097Z,37.60
2018-03-24T07:13:09.464Z,32.90
2018-03-24T07:15:36.838Z,32.23
2018-03-24T07:18:04.234Z,32.07
2018-03-24T07:20:31.598Z,30.10
2018-03-24T07:22:59.053Z,31.00
2018-03-24T07:25:26.422Z,31.27
2018-03-24T07:27:53.785Z,30.23
2018-03-24T07:30:21.165Z,30.03
2018-03-24T07:32:48.521Z,29.57
2018-03-24T07:35:15.875Z,28.40
2018-03-24T07:37:43.269Z,31.87
2018-03-24T07:40:10.705Z,32.67
2018-03-24T07:42:38.216Z,31.17
2018-03-24T07:45:05.621Z,30.27
2018-03-24T07:47:33.009Z,33.70
2018-03-24T07:50:00.367Z,30.47
2018-03-24T07:52:27.766Z,29.13
2018-03-24T07:54:55.141Z,28.53
2018-03-24T07:57:22.549Z,31.33
2018-03-24T07:59:49.920Z,31.10
2018-03-24T08:02:17.342Z,31.07
2018-03-24T08:04:44.697Z,30.10
2018-03-24T08:07:12.072Z,30.90
2018-03-24T08:09:39.486Z,30.40
2018-03-24T08:12:06.909Z,27.60
2018-03-24T08:14:34.278Z,29.47
2018-03-24T08:17:01.644Z,28.87
2018-03-24T08:19:29.053Z,27.80
2018-03-24T08:21:56.404Z,28.13
2018-03-24T08:24:23.766Z,25.70
2018-03-24T08:26:51.152Z,27.97
2018-03-24T08:29:18.511Z,29.70
2018-03-24T08:31:45.874Z,28.43
2018-03-24T08:34:13.261Z,28.20
2018-03-24T08:36:40.647Z,28.90
2018-03-24T08:39:08.092Z,30.50
2018-03-24T08:41:35.461Z,29.90
2018-03-24T08:44:02.846Z,28.10
2018-03-24T08:46:30.247Z,26.23
2018-03-24T08:48:57.601Z,28.70
2018-03-24T08:51:24.970Z,25.27
2018-03-24T08:53:52.389Z,25.93
2018-03-24T08:56:19.760Z,26.77
2018-03-24T08:58:47.113Z,28.40
2018-03-24T09:01:14.537Z,28.53
2018-03-24T09:03:41.901Z,28.70
2018-03-24T09:06:09.301Z,32.20
2018-03-24T09:08:36.666Z,25.97
2018-03-24T09:11:04.035Z,25.27
2018-03-24T09:13:31.421Z,27.30
2018-03-24T09:15:58.773Z,29.27
2018-03-24T09:18:26.134Z,25.27
2018-03-24T09:20:53.532Z,27.23
2018-03-24T09:23:20.914Z,30.80
2018-03-24T09:25:48.321Z,26.93
2018-03-24T09:28:15.681Z,27.93
2018-03-24T09:30:43.041Z,26.97
2018-03-24T09:33:10.457Z,25.90
2018-03-24T09:35:37.813Z,31.40
2018-03-24T09:38:05.209Z,24.70
2018-03-24T09:40:32.651Z,27.50
2018-03-24T09:43:00.023Z,29.47
2018-03-24T09:45:27.385Z,28.03
2018-03-24T09:47:54.787Z,28.90
2018-03-24T09:50:22.171Z,34.53
2018-03-24T09:52:49.578Z,30.50
2018-03-24T09:55:16.985Z,29.73
2018-03-24T09:57:44.342Z,33.77
2018-03-24T10:00:11.785Z,28.10
2018-03-24T10:02:39.607Z,29.40
2018-03-24T10:05:06.969Z,24.80
2018-03-24T10:07:34.360Z,26.27
2018-03-24T10:10:01.735Z,24.83
2018-03-24T10:12:29.441Z,27.43
2018-03-24T10:14:57.056Z,27.57
2018-03-24T10:17:24.420Z,27.33
2018-03-24T10:19:51.804Z,28.70
2018-03-24T10:25:18.215Z,24.27
2018-03-24T10:27:45.602Z,26.13
2018-03-24T10:30:12.957Z,25.50
2018-03-24T10:32:40.317Z,27.20
2018-03-24T10:35:07.746Z,26.70
2018-03-24T10:37:40.963Z,23.80
2018-03-24T10:40:08.393Z,28.27
2018-03-24T10:42:35.773Z,27.20
2018-03-24T10:45:03.150Z,26.63
2018-03-24T10:47:30.629Z,24.57
2018-03-24T10:49:57.986Z,23.20
2018-03-24T10:52:25.360Z,29.07
2018-03-24T10:54:52.749Z,25.60
2018-03-24T10:57:20.138Z,16.20
2018-03-24T10:59:47.545Z,17.03
2018-03-24T11:02:14.987Z,18.90
2018-03-24T11:04:42.364Z,20.63
2018-03-24T11:07:09.758Z,20.00
2018-03-24T11:09:37.120Z,20.03
2018-03-24T11:12:04.494Z,19.00
2018-03-24T11:14:31.901Z,21.07
2018-03-24T11:16:59.261Z,19.80
2018-03-24T11:19:26.626Z,21.00
2018-03-24T11:21:54.031Z,22.40
2018-03-24T11:24:21.439Z,19.70
2018-03-24T11:26:48.793Z,20.63
2018-03-24T11:29:16.166Z,17.60
2018-03-24T11:31:43.589Z,20.80
2018-03-24T11:34:10.985Z,23.67
2018-03-24T11:36:38.402Z,21.67
2018-03-24T11:39:05.795Z,22.13
2018-03-24T11:41:33.182Z,19.30
2018-03-24T11:44:00.669Z,21.50
2018-03-24T11:46:28.034Z,21.70
2018-03-24T11:48:55.421Z,23.90
2018-03-24T11:51:22.819Z,22.37
2018-03-24T11:53:50.210Z,19.67
2018-03-24T11:56:17.564Z,21.20
2018-03-24T11:58:44.931Z,20.80
2018-03-24T12:01:12.345Z,21.97
2018-03-24T12:03:39.730Z,23.30
2018-03-24T12:06:07.111Z,23.50
2018-03-24T12:08:34.463Z,19.77
2018-03-24T12:11:01.869Z,21.67
2018-03-24T12:13:29.230Z,22.33
2018-03-24T12:15:56.590Z,21.10
2018-03-24T12:18:23.977Z,22.60
2018-03-24T12:20:51.419Z,24.53
2018-03-24T12:23:18.786Z,23.53
2018-03-24T12:25:46.494Z,24.30
2018-03-24T12:28:13.906Z,22.77
2018-03-24T12:30:41.272Z,24.57
2018-03-24T12:33:08.643Z,20.67
2018-03-24T12:35:36.039Z,26.20
2018-03-24T12:38:03.428Z,21.20
2018-03-24T12:40:30.817Z,19.70
2018-03-24T12:42:58.182Z,22.97
2018-03-24T12:45:25.566Z,20.40
2018-03-24T12:47:53.014Z,22.30
2018-03-24T12:50:20.381Z,22.27
2018-03-24T12:52:47.825Z,21.70
2018-03-24T12:55:15.233Z,22.30
2018-03-24T12:57:42.610Z,24.27
2018-03-24T13:00:10.009Z,21.03
2018-03-24T13:02:37.438Z,22.47
2018-03-24T13:05:04.802Z,20.73
2018-03-24T13:07:32.157Z,22.10
2018-03-24T13:09:59.550Z,23.83
2018-03-24T13:12:26.957Z,23.07
2018-03-24T13:14:54.329Z,22.50
2018-03-24T13:17:21.739Z,22.70
2018-03-24T13:19:49.156Z,23.20
2018-03-24T13:22:16.494Z,25.80
2018-03-24T13:24:47.381Z,24.33
2018-03-24T13:27:14.770Z,23.90
2018-03-24T13:29:42.142Z,25.37
2018-03-24T13:32:09.597Z,25.03
2018-03-24T13:34:36.976Z,24.03
2018-03-24T13:37:04.354Z,23.10
2018-03-24T13:39:31.758Z,26.90
2018-03-24T13:41:59.122Z,23.07
2018-03-24T13:44:26.497Z,24.20
2018-03-24T13:46:53.887Z,25.70
2018-03-24T13:49:21.277Z,24.53
2018-03-24T13:51:48.637Z,25.60
2018-03-24T13:54:16.034Z,27.23
2018-03-24T13:56:43.409Z,27.27
2018-03-24T13:59:10.797Z,28.43
2018-03-24T14:01:38.182Z,28.70
2018-03-24T14:04:05.543Z,27.70
2018-03-24T14:06:32.947Z,29.13
2018-03-24T14:09:00.330Z,32.50
2018-03-24T14:11:27.690Z,31.80
2018-03-24T14:13:55.090Z,33.00
2018-03-24T14:16:22.454Z,32.57
2018-03-24T14:18:49.848Z,33.60
2018-03-24T14:21:17.305Z,31.00
2018-03-24T14:23:44.722Z,31.33
2018-03-24T14:26:12.098Z,32.20
2018-03-24T14:28:39.454Z,29.83
2018-03-24T14:31:06.826Z,30.47
2018-03-24T14:33:34.239Z,29.03
2018-03-24T14:36:01.657Z,26.80
2018-03-24T15:22:31.385Z,24.37
2018-03-24T15:24:58.785Z,25.23
2018-03-24T15:27:26.241Z,24.47
2018-03-24T15:29:59.530Z,24.80
2018-03-24T15:32:32.917Z,23.93
2018-03-24T15:35:06.057Z,26.90
2018-03-24T15:37:33.438Z,26.83
2018-03-24T15:40:00.840Z,26.33
2018-03-24T15:42:28.246Z,26.23
2018-03-24T15:44:55.618Z,26.63
2018-03-24T15:47:22.985Z,25.30
2018-03-24T15:49:50.379Z,25.90
2018-03-24T15:52:17.754Z,27.10
2018-03-24T15:54:45.120Z,25.97
2018-03-24T15:57:12.506Z,25.57
2018-03-24T15:59:39.951Z,25.87
2018-03-24T16:02:07.370Z,27.03
2018-03-24T16:04:34.724Z,24.70
2018-03-24T16:07:02.086Z,25.13
2018-03-24T16:16:49.884Z,27.30
2018-03-24T16:19:17.242Z,28.60
2018-03-24T16:21:44.622Z,27.20
2018-03-24T16:24:12.011Z,29.30
2018-03-24T16:43:46.953Z,31.20
2018-03-24T16:46:14.324Z,31.80
2018-03-24T16:48:41.818Z,34.90
2018-03-24T16:51:09.182Z,32.70
2018-03-24T16:53:36.665Z,35.13
2018-03-24T16:56:04.057Z,32.00
2018-03-24T16:58:31.426Z,32.53
2018-03-24T17:00:58.787Z,38.20
2018-03-24T17:03:26.186Z,36.53
2018-03-24T17:05:53.548Z,33.87
2018-03-24T17:08:20.918Z,40.93
2018-03-24T17:10:48.311Z,46.10
2018-03-24T17:18:09.254Z,49.43
2018-03-24T17:20:37.270Z,48.33
2018-03-24T17:23:04.627Z,50.40
2018-03-24T17:25:32.042Z,47.13
2018-03-24T17:27:59.460Z,50.63
2018-03-24T17:30:26.877Z,48.40
2018-03-24T17:32:54.273Z,47.63
2018-03-24T17:35:21.687Z,50.50
2018-03-24T17:37:49.046Z,46.40
2018-03-24T17:40:16.446Z,48.20
2018-03-24T17:42:43.805Z,54.87
2018-03-24T17:45:11.161Z,44.40
2018-03-24T17:47:38.566Z,51.07
2018-03-24T17:50:05.930Z,51.43
2018-03-24T17:52:33.292Z,47.47
2018-03-24T17:55:00.744Z,48.17
2018-03-24T17:57:28.162Z,49.40
2018-03-24T17:59:55.542Z,47.67
2018-03-24T18:02:22.936Z,56.53
2018-03-24T18:04:50.333Z,52.10
2018-03-24T18:07:17.690Z,53.63
2018-03-24T18:09:45.041Z,49.80
2018-03-24T18:12:12.419Z,62.80
2018-03-24T18:14:39.849Z,53.97
2018-03-24T18:17:07.217Z,54.80
2018-03-24T18:19:34.611Z,60.83
2018-03-24T18:22:01.998Z,58.27
2018-03-24T18:24:29.402Z,59.30
2018-03-24T18:26:56.757Z,59.23
2018-03-24T18:29:24.133Z,60.93
2018-03-24T18:31:52.034Z,64.27
2018-03-24T18:34:19.398Z,62.80
2018-03-24T18:39:13.578Z,60.30
2018-03-24T18:41:40.934Z,59.10
2018-03-24T18:46:35.122Z,70.00
2018-03-24T18:49:02.533Z,64.93
2018-03-24T18:51:29.921Z,64.90
2018-03-24T18:53:57.296Z,68.00
2018-03-24T18:56:24.722Z,72.93
2018-03-24T18:58:52.080Z,65.20
2018-03-24T19:01:19.429Z,68.17
2018-03-24T19:03:46.833Z,74.33
2018-03-24T19:06:14.214Z,65.50
2018-03-24T19:08:41.573Z,74.87
2018-03-24T19:11:08.986Z,76.10
2018-03-24T19:13:36.365Z,68.70
2018-03-24T19:16:03.734Z,68.50
2018-03-24T19:18:31.141Z,71.87
2018-03-24T19:20:58.531Z,81.57
2018-03-24T19:23:25.894Z,76.73
2018-03-24T19:25:53.343Z,82.10
2018-03-24T19:28:20.722Z,83.80
2018-03-24T19:30:48.398Z,78.73
2018-03-24T19:33:15.765Z,81.37
2018-03-24T19:35:43.300Z,76.47
2018-03-24T19:38:10.729Z,72.20
2018-03-24T19:40:38.184Z,83.63
2018-03-24T19:43:05.595Z,84.10
2018-03-24T19:45:32.953Z,86.03
2018-03-24T19:48:00.391Z,92.63
2018-03-24T19:50:27.802Z,87.80
2018-03-24T19:52:55.184Z,87.97
2018-03-24T19:55:22.545Z,85.47
2018-03-24T19:57:49.957Z,94.50
2018-03-24T20:00:17.387Z,85.57
2018-03-24T20:02:44.758Z,84.67
2018-03-24T20:05:12.163Z,79.20
2018-03-24T20:07:39.592Z,84.67
2018-03-24T20:10:06.963Z,82.30
2018-03-24T20:12:34.366Z,83.30
2018-03-24T20:15:01.762Z,82.80
2018-03-24T20:17:29.125Z,84.67
2018-03-24T20:19:56.518Z,78.00
2018-03-24T20:22:23.888Z,74.40
2018-03-24T20:24:51.276Z,84.43
2018-03-24T20:27:18.746Z,85.33
2018-03-24T20:29:46.133Z,75.13
2018-03-24T20:32:16.838Z,78.80
2018-03-24T20:34:44.228Z,81.27
2018-03-24T20:37:11.608Z,81.73
2018-03-24T20:39:39.012Z,83.37
2018-03-24T20:42:06.389Z,83.00
2018-03-24T20:44:33.752Z,80.43
2018-03-24T20:47:01.143Z,84.23
2018-03-24T20:49:28.504Z,89.17
2018-03-24T20:51:55.900Z,77.73
2018-03-24T20:54:23.270Z,80.30
2018-03-24T20:56:50.652Z,85.90
2018-03-24T20:59:18.060Z,87.73
2018-03-24T21:01:45.501Z,88.90
2018-03-24T21:04:12.866Z,82.27
2018-03-24T21:06:40.262Z,83.10
2018-03-24T21:09:07.618Z,96.77
2018-03-24T21:11:34.989Z,81.80
2018-03-24T21:14:02.381Z,85.57
2018-03-24T21:16:29.825Z,81.47
2018-03-24T21:18:57.190Z,92.20
2018-03-24T21:21:24.595Z,88.20
2018-03-24T21:23:52.013Z,91.13
2018-03-24T21:26:19.366Z,81.83
2018-03-24T21:28:46.760Z,88.83
2018-03-24T21:31:14.187Z,88.63
2018-03-24T21:33:41.749Z,92.73
2018-03-24T21:36:09.117Z,79.13
2018-03-24T21:38:36.505Z,89.93
2018-03-24T21:41:03.861Z,90.00
2018-03-24T21:43:31.225Z,85.83
2018-03-24T21:45:58.631Z,85.40
2018-03-24T21:48:26.097Z,86.60
2018-03-24T21:50:53.513Z,81.70
2018-03-24T21:53:20.906Z,90.30
2018-03-24T21:55:48.269Z,88.37
2018-03-24T21:58:15.645Z,88.20
2018-03-24T22:00:43.162Z,89.07
2018-03-24T22:03:10.524Z,86.67
2018-03-24T22:05:37.885Z,86.47
2018-03-24T22:08:05.286Z,85.43
2018-03-24T22:10:32.647Z,89.60
2018-03-24T22:13:00.010Z,85.77
2018-03-24T22:15:27.469Z,94.23
2018-03-24T22:17:54.879Z,100.53
2018-03-24T22:20:22.273Z,96.60
2018-03-24T22:22:49.666Z,155.17
2018-03-24T22:25:17.058Z,121.60
2018-03-24T22:27:44.477Z,97.97
2018-03-24T22:30:11.833Z,99.83
2018-03-24T22:32:39.273Z,108.97
2018-03-24T22:35:06.634Z,87.47
2018-03-24T22:37:34.016Z,95.17
2018-03-24T22:40:01.407Z,100.53
2018-03-24T22:42:28.821Z,94.87
2018-03-24T22:44:56.186Z,102.13
2018-03-24T22:47:23.589Z,93.17
2018-03-24T22:49:50.985Z,84.07
2018-03-24T22:52:24.038Z,86.13
2018-03-24T22:54:51.435Z,87.93
2018-03-24T22:57:18.801Z,85.90
2018-03-24T22:59:46.160Z,92.57
2018-03-24T23:02:13.571Z,99.67
2018-03-24T23:04:40.937Z,85.87
2018-03-24T23:07:08.370Z,96.93
2018-03-24T23:09:35.788Z,88.07
2018-03-24T23:12:03.185Z,87.23
2018-03-24T23:14:30.531Z,87.33
2018-03-24T23:16:57.924Z,89.37
2018-03-24T23:19:25.302Z,86.53
2018-03-24T23:21:52.734Z,83.43
2018-03-24T23:24:20.085Z,96.10
2018-03-24T23:26:47.510Z,90.00
2018-03-24T23:29:14.897Z,91.20
2018-03-24T23:31:42.246Z,86.87
2018-03-24T23:34:09.615Z,79.67
2018-03-24T23:36:36.999Z,93.33
2018-03-24T23:39:05.349Z,83.17
2018-03-24T23:41:32.708Z,85.57
2018-03-24T23:44:00.121Z,89.23
2018-03-24T23:46:27.472Z,82.23
2018-03-24T23:48:54.857Z,83.30
2018-03-24T23:51:22.241Z,82.50
2018-03-24T23:53:49.595Z,77.57
2018-03-24T23:56:17.002Z,83.33
2018-03-24T23:58:44.378Z,80.47
